DHK6827 LROP-LTFM
Flight info
| Callsign | DHK6827 |
|---|---|
| Flight time | N/A |
| Altitude | 37000 |
| Route | IDARU DCT NONQE DCT MAXOV DCT MATEL L620 RIXEN |
| Aircraft | A333/H-SDE3GHIJ2J3J5M1RVWXY/LB2D1 |
Departure
| Time | 2026-04-30 19:18 |
|---|---|
| Airport | Bucharest Henri Coandă International Airport (LROP) |
Arrival
| Time | N/A |
|---|---|
| Airport | İstanbul Airport (LTFM) |
| Time | Latitude | Longitude | Altitude | Speed | Heading |
|---|---|---|---|---|---|
| 2026-04-30 18:56 | 44.56961 | 26.10278 | 326 ft | 0 kts | 174° |
| 2026-04-30 19:08 | 44.56997 | 26.10273 | 322 ft | 3 kts | 174° |
| 2026-04-30 19:08 | 44.57015 | 26.10271 | 322 ft | 3 kts | 174° |
| 2026-04-30 19:09 | 44.57044 | 26.10267 | 323 ft | 3 kts | 197° |
| 2026-04-30 19:09 | 44.57060 | 26.10280 | 322 ft | 3 kts | 241° |
| 2026-04-30 19:09 | 44.57063 | 26.10288 | 326 ft | 0 kts | 249° |
| 2026-04-30 19:13 | 44.57048 | 26.10225 | 323 ft | 8 kts | 256° |
| 2026-04-30 19:13 | 44.57100 | 26.09890 | 322 ft | 12 kts | 358° |
| 2026-04-30 19:13 | 44.57184 | 26.09887 | 323 ft | 13 kts | 353° |
| 2026-04-30 19:14 | 44.57331 | 26.09866 | 322 ft | 36 kts | 354° |
| 2026-04-30 19:14 | 44.57553 | 26.09827 | 324 ft | 21 kts | 332° |
| 2026-04-30 19:14 | 44.57581 | 26.09653 | 322 ft | 18 kts | 263° |
| 2026-04-30 19:14 | 44.57564 | 26.09459 | 323 ft | 23 kts | 263° |
| 2026-04-30 19:15 | 44.57546 | 26.09214 | 324 ft | 28 kts | 265° |
| 2026-04-30 19:15 | 44.57506 | 26.08638 | 324 ft | 25 kts | 262° |
| 2026-04-30 19:15 | 44.57534 | 26.08469 | 323 ft | 12 kts | 338° |
| 2026-04-30 19:16 | 44.57539 | 26.08467 | 323 ft | 0 kts | 346° |
| 2026-04-30 19:16 | 44.57666 | 26.08484 | 322 ft | 16 kts | 42° |
| 2026-04-30 19:17 | 44.57687 | 26.08596 | 324 ft | 14 kts | 86° |
| 2026-04-30 19:17 | 44.57793 | 26.10088 | 325 ft | 145 kts | 84° |
| 2026-04-30 19:17 | 44.57911 | 26.11722 | 682 ft | 184 kts | 83° |
| 2026-04-30 19:18 | 44.58068 | 26.14297 | 1809 ft | 209 kts | 83° |
| 2026-04-30 19:18 | 44.58323 | 26.17896 | 3409 ft | 236 kts | 81° |
| 2026-04-30 19:18 | 44.58495 | 26.20197 | 4623 ft | 238 kts | 81° |
| 2026-04-30 19:19 | 44.58669 | 26.22522 | 5797 ft | 242 kts | 81° |
| 2026-04-30 19:19 | 44.58849 | 26.24907 | 6806 ft | 250 kts | 82° |
| 2026-04-30 19:19 | 44.59223 | 26.29889 | 8673 ft | 263 kts | 82° |
| 2026-04-30 19:20 | 44.59416 | 26.32472 | 9601 ft | 269 kts | 82° |
| 2026-04-30 19:20 | 44.59614 | 26.35131 | 10369 ft | 282 kts | 82° |
| 2026-04-30 19:20 | 44.60054 | 26.41009 | 10957 ft | 322 kts | 82° |
| 2026-04-30 19:21 | 44.60289 | 26.44200 | 11128 ft | 338 kts | 82° |
| 2026-04-30 19:21 | 44.60792 | 26.51068 | 11833 ft | 364 kts | 82° |
| 2026-04-30 19:22 | 44.61312 | 26.58246 | 13004 ft | 375 kts | 83° |
| 2026-04-30 19:22 | 44.62111 | 26.69377 | 14660 ft | 391 kts | 84° |
| 2026-04-30 19:23 | 44.62929 | 26.80941 | 16280 ft | 403 kts | 84° |
| 2026-04-30 19:24 | 44.63277 | 26.88856 | 17328 ft | 410 kts | 94° |
| 2026-04-30 19:24 | 44.62851 | 26.92810 | 17871 ft | 411 kts | 106° |
| 2026-04-30 19:24 | 44.60311 | 26.99953 | 18852 ft | 412 kts | 131° |
| 2026-04-30 19:25 | 44.53588 | 27.07304 | 20178 ft | 414 kts | 153° |
| 2026-04-30 19:26 | 44.48592 | 27.11396 | 21077 ft | 418 kts | 155° |
| 2026-04-30 19:26 | 44.43523 | 27.15518 | 21846 ft | 426 kts | 155° |
| 2026-04-30 19:26 | 44.40961 | 27.17636 | 22276 ft | 429 kts | 155° |
| 2026-04-30 19:27 | 44.35858 | 27.21906 | 23193 ft | 431 kts | 157° |
| 2026-04-30 19:27 | 44.30679 | 27.26250 | 23988 ft | 437 kts | 158° |
| 2026-04-30 19:28 | 44.28060 | 27.28442 | 24304 ft | 440 kts | 158° |
| 2026-04-30 19:28 | 44.22776 | 27.32857 | 24951 ft | 446 kts | 158° |
| 2026-04-30 19:29 | 44.17417 | 27.37324 | 25516 ft | 453 kts | 158° |
| 2026-04-30 19:29 | 44.14709 | 27.39578 | 25854 ft | 454 kts | 158° |
| 2026-04-30 19:30 | 44.06576 | 27.46335 | 26885 ft | 460 kts | 159° |
| 2026-04-30 19:30 | 44.01055 | 27.50905 | 27268 ft | 463 kts | 159° |
| 2026-04-30 19:31 | 43.96451 | 27.54715 | 27281 ft | 463 kts | 159° |
| 2026-04-30 19:31 | 43.93678 | 27.57006 | 27257 ft | 463 kts | 159° |
| 2026-04-30 19:31 | 43.87234 | 27.62317 | 27268 ft | 464 kts | 159° |
| 2026-04-30 19:32 | 43.84456 | 27.64601 | 27258 ft | 464 kts | 159° |
| 2026-04-30 19:32 | 43.81679 | 27.66883 | 27261 ft | 464 kts | 159° |
| 2026-04-30 19:32 | 43.78902 | 27.69160 | 27259 ft | 464 kts | 159° |
| 2026-04-30 19:32 | 43.77057 | 27.70670 | 27251 ft | 464 kts | 159° |
| 2026-04-30 19:33 | 43.74282 | 27.72942 | 27257 ft | 464 kts | 159° |
| 2026-04-30 19:33 | 43.71505 | 27.75213 | 27234 ft | 464 kts | 159° |
| 2026-04-30 19:33 | 43.68718 | 27.77489 | 27252 ft | 466 kts | 158° |
| 2026-04-30 19:33 | 43.65924 | 27.79770 | 27232 ft | 467 kts | 158° |
| 2026-04-30 19:34 | 43.63165 | 27.82193 | 27243 ft | 475 kts | 153° |
| 2026-04-30 19:34 | 43.60580 | 27.85109 | 27243 ft | 486 kts | 145° |
| 2026-04-30 19:34 | 43.56073 | 27.92131 | 27236 ft | 496 kts | 137° |
| 2026-04-30 19:35 | 43.53931 | 27.95858 | 27206 ft | 497 kts | 136° |
| 2026-04-30 19:35 | 43.51816 | 27.99624 | 27225 ft | 497 kts | 135° |
| 2026-04-30 19:35 | 43.49709 | 28.03395 | 27228 ft | 497 kts | 135° |
| 2026-04-30 19:35 | 43.47596 | 28.07160 | 27225 ft | 497 kts | 135° |
| 2026-04-30 19:36 | 43.45475 | 28.10911 | 27221 ft | 496 kts | 136° |
| 2026-04-30 19:36 | 43.43342 | 28.14656 | 27216 ft | 496 kts | 136° |
| 2026-04-30 19:36 | 43.39072 | 28.22102 | 27192 ft | 496 kts | 136° |
| 2026-04-30 19:37 | 43.36931 | 28.25819 | 27227 ft | 497 kts | 136° |
| 2026-04-30 19:37 | 43.34813 | 28.29490 | 27228 ft | 497 kts | 136° |
| 2026-04-30 19:37 | 43.32664 | 28.33212 | 27227 ft | 497 kts | 136° |
| 2026-04-30 19:37 | 43.30511 | 28.36937 | 27209 ft | 497 kts | 136° |
| 2026-04-30 19:38 | 43.28359 | 28.40659 | 27221 ft | 498 kts | 136° |
| 2026-04-30 19:38 | 43.26204 | 28.44380 | 27222 ft | 498 kts | 136° |
| 2026-04-30 19:38 | 43.24047 | 28.48099 | 27199 ft | 498 kts | 135° |
| 2026-04-30 19:38 | 43.21888 | 28.51820 | 27215 ft | 498 kts | 136° |
| 2026-04-30 19:39 | 43.19732 | 28.55531 | 27217 ft | 498 kts | 136° |
| 2026-04-30 19:39 | 43.17600 | 28.59194 | 27208 ft | 498 kts | 136° |
| 2026-04-30 19:39 | 43.15440 | 28.62903 | 27209 ft | 498 kts | 136° |
| 2026-04-30 19:39 | 43.13281 | 28.66602 | 27219 ft | 498 kts | 136° |
| 2026-04-30 19:40 | 43.11118 | 28.70298 | 27204 ft | 497 kts | 137° |
| 2026-04-30 19:40 | 43.08740 | 28.73654 | 27205 ft | 486 kts | 147° |
| 2026-04-30 19:40 | 43.06032 | 28.76288 | 27195 ft | 472 kts | 159° |
| 2026-04-30 19:40 | 43.03077 | 28.78061 | 27203 ft | 457 kts | 171° |
| 2026-04-30 19:41 | 43.00006 | 28.78910 | 27193 ft | 444 kts | 183° |
| 2026-04-30 19:41 | 42.96954 | 28.79026 | 27199 ft | 438 kts | 188° |
| 2026-04-30 19:41 | 42.93949 | 28.78944 | 27185 ft | 437 kts | 189° |
| 2026-04-30 19:41 | 42.90911 | 28.78837 | 27188 ft | 437 kts | 189° |
| 2026-04-30 19:42 | 42.87866 | 28.78736 | 27196 ft | 438 kts | 189° |
| 2026-04-30 19:42 | 42.84821 | 28.78643 | 27173 ft | 438 kts | 189° |
| 2026-04-30 19:42 | 42.81780 | 28.78556 | 26948 ft | 436 kts | 188° |
| 2026-04-30 19:42 | 42.78758 | 28.78473 | 26644 ft | 434 kts | 188° |
| 2026-04-30 19:43 | 42.75735 | 28.78390 | 26394 ft | 435 kts | 188° |
| 2026-04-30 19:43 | 42.72712 | 28.78308 | 26132 ft | 434 kts | 188° |
| 2026-04-30 19:43 | 42.69699 | 28.78228 | 25877 ft | 432 kts | 188° |
| 2026-04-30 19:44 | 42.63746 | 28.78071 | 25392 ft | 429 kts | 188° |
| 2026-04-30 19:44 | 42.60764 | 28.77992 | 25144 ft | 428 kts | 187° |
| 2026-04-30 19:44 | 42.57793 | 28.77913 | 24890 ft | 427 kts | 188° |
| 2026-04-30 19:44 | 42.54820 | 28.77833 | 24646 ft | 427 kts | 187° |
| 2026-04-30 19:45 | 42.51855 | 28.77755 | 24412 ft | 426 kts | 187° |
| 2026-04-30 19:45 | 42.48894 | 28.77677 | 24175 ft | 425 kts | 187° |
| 2026-04-30 19:45 | 42.45945 | 28.77600 | 23939 ft | 423 kts | 187° |
| 2026-04-30 19:45 | 42.43044 | 28.77523 | 23711 ft | 422 kts | 187° |
| 2026-04-30 19:46 | 42.40113 | 28.77446 | 23424 ft | 421 kts | 187° |
| 2026-04-30 19:46 | 42.37190 | 28.77370 | 23130 ft | 420 kts | 187° |
| 2026-04-30 19:46 | 42.34275 | 28.77293 | 22849 ft | 419 kts | 187° |
| 2026-04-30 19:46 | 42.31370 | 28.77217 | 22573 ft | 417 kts | 187° |
| 2026-04-30 19:47 | 42.28477 | 28.77142 | 22315 ft | 415 kts | 187° |
| 2026-04-30 19:47 | 42.26571 | 28.77092 | 22130 ft | 414 kts | 187° |
| 2026-04-30 19:47 | 42.22727 | 28.76992 | 21788 ft | 411 kts | 187° |
| 2026-04-30 19:47 | 42.19874 | 28.76917 | 21502 ft | 409 kts | 187° |
| 2026-04-30 19:48 | 42.17030 | 28.76842 | 21249 ft | 408 kts | 187° |
| 2026-04-30 19:48 | 42.14233 | 28.76769 | 20995 ft | 407 kts | 186° |
| 2026-04-30 19:48 | 42.11408 | 28.76696 | 20733 ft | 405 kts | 186° |
| 2026-04-30 19:48 | 42.08593 | 28.76634 | 20490 ft | 404 kts | 185° |
| 2026-04-30 19:49 | 42.05782 | 28.76693 | 20237 ft | 404 kts | 184° |
| 2026-04-30 19:49 | 42.00175 | 28.76919 | 19716 ft | 402 kts | 183° |
| 2026-04-30 19:49 | 41.97386 | 28.77034 | 19477 ft | 400 kts | 183° |
| 2026-04-30 19:50 | 41.94606 | 28.77146 | 19236 ft | 399 kts | 183° |
| 2026-04-30 19:50 | 41.91837 | 28.77257 | 18991 ft | 397 kts | 183° |
| 2026-04-30 19:50 | 41.89079 | 28.77366 | 18754 ft | 395 kts | 183° |
| 2026-04-30 19:50 | 41.86335 | 28.77475 | 18519 ft | 394 kts | 183° |
| 2026-04-30 19:51 | 41.83639 | 28.77580 | 18270 ft | 392 kts | 183° |
| 2026-04-30 19:51 | 41.80921 | 28.77625 | 17990 ft | 388 kts | 187° |
| 2026-04-30 19:51 | 41.78287 | 28.77075 | 17721 ft | 381 kts | 200° |
| 2026-04-30 19:51 | 41.75898 | 28.75648 | 17448 ft | 374 kts | 215° |
| 2026-04-30 19:52 | 41.73919 | 28.73446 | 17178 ft | 369 kts | 229° |
| 2026-04-30 19:52 | 41.72318 | 28.70772 | 16928 ft | 367 kts | 234° |
| 2026-04-30 19:52 | 41.70824 | 28.68009 | 16684 ft | 366 kts | 234° |
| 2026-04-30 19:52 | 41.69340 | 28.65241 | 16421 ft | 365 kts | 234° |
| 2026-04-30 19:53 | 41.67858 | 28.62491 | 16158 ft | 364 kts | 234° |
| 2026-04-30 19:53 | 41.66394 | 28.59792 | 15909 ft | 363 kts | 234° |
| 2026-04-30 19:53 | 41.64910 | 28.57067 | 15653 ft | 362 kts | 234° |
| 2026-04-30 19:53 | 41.63429 | 28.54355 | 15394 ft | 361 kts | 234° |